Op dit moment wordt er hard gewerkt aan deze versie van Weerstation-Wijk.nl
Het kan zijn dat er dingen nog niet helemaal kloppen of goed werken.

Weerstation-Wijk.nl. Voor het weer van Wijk bij Duurstede en omstreken



Bezoek ook deze websites:

Template documentation
and downloads

And another site



METAR rapporten vliegvelden

   
EHVK - Volkel Rnlafb, Netherlands
Afstand tot: ZW 18 km
Gewijzigd: Jan 18 2022 8:14 pm
Bewolking  
Bewolking  
   Wind: varieert 1.9 km/h
Wind: varieert 1.9 km/h
Temperatuur: 4°C
Dauwpunt: 4°C
Vochtigheid: 100%
Barometer: 1036 hPa
Bewolking: Bewolking
Zicht: meer dan 10 km
Bewolking: Bewolking 1900 ft
EHVK 181914Z AUTO VRB01KT 9999 OVC019 04/04 Q1036 WHT
EDLV - Niederrhein, Germany
Afstand tot: ZO 25 km
Gewijzigd: Jan 18 2022 7:50 pm
Nevel, Grotendeels bewolkt  
Nevel, Grotendeels bewolkt  
   Wind: OZO 1.9 km/h
Wind: OZO 1.9 km/h
Temperatuur: 5°C
Dauwpunt: 4°C
Vochtigheid: 93%
Barometer: 1035 hPa
Bewolking: Grotendeels bewolkt
Zicht: 5 km
Bewolking: Grotendeels bewolkt 2000 ft
EDLV 181850Z 11001KT 5000 BR BKN020 05/04 Q1035
EHDL - Deelen Rnlafb, Netherlands
Afstand tot: N 35 km
Gewijzigd: Jan 18 2022 7:55 pm
Nevel, Bewolking  
Nevel, Bewolking  
   Wind: NW 1.9 km/h
Wind: NW 1.9 km/h
Temperatuur: 4°C
Dauwpunt: 4°C
Vochtigheid: 100%
Barometer: 1035 hPa
Bewolking: Bewolking
Zicht: 2 km
Bewolking: Bewolking 1200 ft
EHDL 181855Z AUTO 32001KT 2000 BR OVC012 04/04 Q1035 YLO
EHEH - Eindhoven Rnlafb, Netherlands
Afstand tot: ZW 48 km
Gewijzigd: Jan 18 2022 8:08 pm
Licht bewolkt  
Licht bewolkt  
   Wind: varieert 3.7 km/h
Wind: varieert 3.7 km/h
Temperatuur: 5°C
Dauwpunt: 3°C
Vochtigheid: 87%
Barometer: 1035 hPa
Bewolking: Licht bewolkt
Zicht: meer dan 10 km
Bewolking: Licht bewolkt 2000 ft
EHEH 181908Z AUTO VRB02KT 9999 FEW020 05/03 Q1035 BLU NOSIG
EHGR - Gilze-Rijen Rnla, Netherlands
Afstand tot: WZW 70 km
Gewijzigd: Jan 18 2022 7:55 pm
Nevel, Bewolking  
Nevel, Bewolking  
   Wind: varieert 3.7 km/h
Wind: varieert 3.7 km/h
Temperatuur: 3°C
Dauwpunt: 2°C
Vochtigheid: 93%
Barometer: 1035 hPa
Bewolking: Bewolking
Zicht: 2 km
Bewolking: Bewolking 1900 ft
EHGR 181855Z AUTO VRB02KT 2200 R28/2800D BR OVC019 03/02 Q1035 YLO BECMG 2000 BR MIFG
EBBL - Kleine-Brogel(Ba, Belgium
Afstand tot: ZZW 71 km
Gewijzigd: Jan 18 2022 8:03 pm
Licht bewolkt  
Licht bewolkt  
   Wind: Oosten 7.4 km/h
Wind: Oosten 7.4 km/h
Temperatuur: 5°C
Voelt als: 3°C
Dauwpunt: 3°C
Vochtigheid: 87%
Barometer: 1035 hPa
Bewolking: Licht bewolkt
Zicht: meer dan 10 km
Bewolking: Licht bewolkt 2200 ft
EBBL 181903Z 09004KT 9999 FEW022 05/03 Q1035 BLU BLU

Script ontwikkeld door  Saratoga-weather.org Aangepast voor de template door  Weerstation Leuven

U vindt ons ook hier:

UK Metoffice

WeatherCloud

AWEKAS

Apparatuur in gebruik:

Weerstation
Davis VP2 + EU Wireless

Weerprogramma
Weather Display

Webleverancier
WebReus.nl

Davis VP2 + EU Wireless

Weather Display

WebReus.nl


Weerstation-Wijk.nl. Voor het weer van Wijk bij Duurstede en omstreken